createdAt,value
2019-03-28T00:00:40.143Z,99.90
2019-03-28T00:03:24.943Z,99.90
2019-03-28T00:06:09.915Z,99.90
2019-03-28T00:08:54.620Z,99.90
2019-03-28T00:11:39.530Z,99.90
2019-03-28T00:14:24.587Z,99.90
2019-03-28T00:17:09.158Z,99.90
2019-03-28T00:19:54.069Z,99.90
2019-03-28T00:22:58.478Z,99.90
2019-03-28T00:25:43.252Z,99.90
2019-03-28T00:28:28.415Z,99.90
2019-03-28T00:31:13.350Z,99.90
2019-03-28T00:33:58.023Z,99.90
2019-03-28T00:36:43.081Z,99.90
2019-03-28T00:39:28.303Z,99.90
2019-03-28T00:42:13.233Z,99.90
2019-03-28T00:44:58.439Z,99.90
2019-03-28T00:47:43.484Z,99.90
2019-03-28T00:50:28.647Z,99.90
2019-03-28T00:53:13.499Z,99.90
2019-03-28T00:55:58.803Z,99.90
2019-03-28T01:19:18.536Z,99.90
2019-03-28T01:22:03.308Z,99.90
2019-03-28T01:24:48.417Z,99.90
2019-03-28T01:27:32.868Z,99.90
2019-03-28T01:30:17.698Z,99.90
2019-03-28T01:33:02.097Z,99.90
2019-03-28T01:35:46.585Z,99.90
2019-03-28T01:38:31.027Z,99.90
2019-03-28T01:41:16.246Z,99.90
2019-03-28T01:44:00.733Z,99.90
2019-03-28T01:46:45.317Z,99.90
2019-03-28T01:49:29.962Z,99.90
2019-03-28T01:52:14.590Z,99.90
2019-03-28T01:54:59.402Z,99.90
2019-03-28T01:57:44.372Z,99.90
2019-03-28T02:00:29.318Z,99.90
2019-03-28T02:03:14.156Z,99.90
2019-03-28T02:05:59.072Z,99.90
2019-03-28T02:08:43.972Z,99.90
2019-03-28T02:11:28.460Z,99.90
2019-03-28T02:14:13.059Z,99.90
2019-03-28T02:16:57.672Z,99.90
2019-03-28T02:19:42.181Z,99.90
2019-03-28T02:22:27.293Z,99.90
2019-03-28T02:25:12.008Z,99.90
2019-03-28T02:27:57.023Z,99.90
2019-03-28T02:30:41.668Z,99.90
2019-03-28T02:33:26.195Z,99.90
2019-03-28T02:36:10.784Z,99.90
2019-03-28T02:38:55.514Z,99.90
2019-03-28T02:41:40.019Z,99.90
2019-03-28T02:44:24.708Z,99.90
2019-03-28T02:47:09.262Z,99.90
2019-03-28T02:49:54.224Z,99.90
2019-03-28T02:52:38.645Z,99.90
2019-03-28T02:55:23.847Z,99.90
2019-03-28T02:58:09.079Z,99.90
2019-03-28T03:00:53.802Z,99.90
2019-03-28T03:03:38.304Z,99.90
2019-03-28T03:06:23.188Z,99.90
2019-03-28T03:09:08.151Z,99.90
2019-03-28T03:11:52.931Z,99.90
2019-03-28T03:14:37.854Z,99.90
2019-03-28T03:17:23.158Z,99.90
2019-03-28T03:20:08.419Z,99.90
2019-03-28T03:22:54.510Z,99.90
2019-03-28T03:25:39.374Z,99.90
2019-03-28T03:28:24.047Z,99.90
2019-03-28T03:31:08.666Z,99.90
2019-03-28T03:33:53.282Z,99.90
2019-03-28T03:36:38.523Z,99.90
2019-03-28T03:39:23.539Z,99.90
2019-03-28T03:42:08.653Z,99.90
2019-03-28T03:44:53.962Z,99.90
2019-03-28T03:47:38.405Z,99.90
2019-03-28T03:50:25.081Z,99.90
2019-03-28T03:53:09.557Z,99.90
2019-03-28T03:55:54.183Z,99.90
2019-03-28T03:58:38.637Z,99.90
2019-03-28T04:01:23.226Z,99.90
2019-03-28T04:04:07.864Z,99.90
2019-03-28T04:06:53.077Z,99.90
2019-03-28T04:09:38.018Z,99.90
2019-03-28T04:12:22.809Z,99.90
2019-03-28T04:15:07.969Z,99.90
2019-03-28T04:17:53.217Z,99.90
2019-03-28T04:20:38.083Z,99.90
2019-03-28T04:23:22.777Z,99.90
2019-03-28T04:26:07.528Z,99.90
2019-03-28T04:28:52.512Z,99.90
2019-03-28T04:31:37.256Z,99.90
2019-03-28T04:34:22.717Z,99.90
2019-03-28T04:37:07.479Z,99.90
2019-03-28T04:39:52.224Z,99.90
2019-03-28T04:42:37.297Z,99.90
2019-03-28T04:45:22.521Z,99.90
2019-03-28T04:48:07.367Z,99.90
2019-03-28T04:50:52.461Z,99.90
2019-03-28T04:53:37.646Z,99.90
2019-03-28T04:56:23.073Z,99.90
2019-03-28T04:59:07.684Z,99.90
2019-03-28T05:02:01.263Z,99.90
2019-03-28T05:04:39.294Z,99.90
2019-03-28T05:07:24.281Z,99.90
2019-03-28T05:10:09.615Z,99.90
2019-03-28T05:12:54.487Z,99.90
2019-03-28T05:15:38.822Z,99.90
2019-03-28T05:18:23.562Z,99.90
2019-03-28T05:21:08.102Z,99.90
2019-03-28T05:23:52.977Z,99.90
2019-03-28T05:26:37.718Z,99.90
2019-03-28T05:29:22.716Z,99.90
2019-03-28T05:32:07.387Z,99.90
2019-03-28T05:34:52.105Z,99.90
2019-03-28T05:37:37.063Z,99.90
2019-03-28T05:40:22.938Z,99.90
2019-03-28T05:43:07.842Z,99.90
2019-03-28T05:45:52.902Z,99.90
2019-03-28T05:48:37.831Z,99.90
2019-03-28T05:51:22.332Z,99.90
2019-03-28T05:54:07.156Z,99.90
2019-03-28T05:56:51.464Z,99.90
2019-03-28T05:59:36.410Z,99.90
2019-03-28T06:02:21.118Z,99.90
2019-03-28T06:05:06.128Z,99.90
2019-03-28T06:07:51.140Z,99.90
2019-03-28T06:10:36.485Z,99.90
2019-03-28T06:13:21.416Z,99.90
2019-03-28T06:16:06.166Z,99.90
2019-03-28T06:18:50.939Z,99.90
2019-03-28T06:21:35.604Z,99.90
2019-03-28T06:24:20.728Z,99.90
2019-03-28T06:27:05.297Z,99.90
2019-03-28T06:29:50.197Z,99.90
2019-03-28T06:32:42.868Z,99.90
2019-03-28T06:35:22.012Z,99.90
2019-03-28T06:38:07.036Z,99.90
2019-03-28T06:40:51.643Z,99.90
2019-03-28T06:43:36.137Z,99.90
2019-03-28T06:46:20.740Z,99.90
2019-03-28T06:49:05.185Z,99.90
2019-03-28T06:51:49.905Z,99.90
2019-03-28T06:54:34.494Z,99.90
2019-03-28T06:57:19.155Z,99.90
2019-03-28T07:00:06.916Z,99.90
2019-03-28T07:02:51.421Z,99.90
2019-03-28T07:05:35.927Z,99.90
2019-03-28T07:08:21.815Z,99.90
2019-03-28T07:11:06.825Z,99.90
2019-03-28T07:13:51.433Z,99.90
2019-03-28T07:16:36.186Z,99.90
2019-03-28T07:19:21.235Z,99.90
2019-03-28T07:22:06.238Z,99.90
2019-03-28T07:24:51.125Z,99.90
2019-03-28T07:27:36.000Z,99.90
2019-03-28T07:30:21.104Z,99.90
2019-03-28T07:33:05.661Z,99.90
2019-03-28T07:35:50.892Z,99.90
2019-03-28T07:38:35.775Z,99.90
2019-03-28T07:41:21.072Z,99.90
2019-03-28T07:44:05.431Z,99.90
2019-03-28T07:46:50.231Z,99.90
2019-03-28T07:49:37.609Z,99.90
2019-03-28T07:52:22.025Z,99.90
2019-03-28T07:55:07.487Z,99.90
2019-03-28T07:57:52.112Z,99.90
2019-03-28T08:00:36.689Z,99.90
2019-03-28T08:03:21.421Z,99.90
2019-03-28T08:06:06.137Z,99.90
2019-03-28T08:08:50.616Z,99.90
2019-03-28T08:11:35.393Z,99.90
2019-03-28T08:14:20.362Z,99.90
2019-03-28T08:17:05.438Z,99.90
2019-03-28T08:19:49.877Z,99.90
2019-03-28T08:22:34.547Z,99.90
2019-03-28T08:25:19.571Z,99.90
2019-03-28T08:28:04.109Z,99.90
2019-03-28T08:30:48.886Z,99.90
2019-03-28T08:33:35.650Z,99.90
2019-03-28T08:36:20.894Z,99.90
2019-03-28T08:39:05.798Z,99.90
2019-03-28T08:41:50.832Z,99.90
2019-03-28T08:44:35.783Z,99.90
2019-03-28T08:47:20.934Z,99.90
2019-03-28T08:50:06.653Z,99.90
2019-03-28T08:52:51.684Z,99.90
2019-03-28T08:55:36.795Z,99.90
2019-03-28T08:58:21.660Z,99.90
2019-03-28T09:01:07.235Z,99.90
2019-03-28T09:03:52.132Z,99.90
2019-03-28T09:06:37.001Z,99.90
2019-03-28T09:09:21.677Z,99.90
2019-03-28T09:12:06.730Z,99.90
2019-03-28T09:14:51.734Z,99.90
2019-03-28T09:17:36.717Z,99.90
2019-03-28T09:20:21.615Z,99.90
2019-03-28T09:23:06.544Z,97.10
2019-03-28T09:25:51.456Z,97.80
2019-03-28T09:28:36.326Z,97.60
2019-03-28T09:31:20.905Z,97.80
2019-03-28T09:34:06.075Z,98.50
2019-03-28T09:36:50.711Z,96.30
2019-03-28T09:39:35.452Z,95.80
2019-03-28T09:42:20.335Z,95.00
2019-03-28T09:45:05.628Z,94.40
2019-03-28T09:47:50.627Z,95.20
2019-03-28T09:50:35.254Z,94.70
2019-03-28T09:53:20.296Z,94.00
2019-03-28T09:56:04.806Z,93.20
2019-03-28T09:58:50.110Z,92.20
2019-03-28T10:01:34.746Z,92.30
2019-03-28T10:04:19.145Z,92.80
2019-03-28T10:07:03.954Z,93.00
2019-03-28T10:09:48.887Z,92.60
2019-03-28T10:12:34.366Z,91.40
2019-03-28T10:15:19.455Z,91.90
2019-03-28T10:18:04.772Z,90.90
2019-03-28T10:20:49.849Z,90.60
2019-03-28T10:23:34.841Z,90.90
2019-03-28T10:26:19.365Z,91.80
2019-03-28T10:29:04.068Z,93.00
2019-03-28T10:31:48.745Z,93.00
2019-03-28T10:34:33.796Z,92.20
2019-03-28T10:37:18.720Z,92.40
2019-03-28T10:40:06.051Z,92.50
2019-03-28T10:42:51.157Z,92.00
2019-03-28T10:45:35.770Z,92.00
2019-03-28T10:48:23.380Z,91.60
2019-03-28T10:51:06.949Z,90.30
2019-03-28T10:53:51.503Z,88.90
2019-03-28T10:56:50.769Z,87.20
2019-03-28T10:59:24.029Z,88.00
2019-03-28T11:02:10.080Z,86.00
2019-03-28T11:04:54.990Z,82.20
2019-03-28T11:07:40.014Z,84.20
2019-03-28T11:10:24.691Z,83.50
2019-03-28T11:13:09.898Z,85.00
2019-03-28T11:15:54.905Z,84.20
2019-03-28T11:18:39.721Z,83.10
2019-03-28T11:21:24.673Z,83.10
2019-03-28T11:24:09.420Z,79.60
2019-03-28T11:26:54.248Z,81.10
2019-03-28T11:29:39.042Z,80.30
2019-03-28T11:32:23.906Z,81.90
2019-03-28T11:35:08.583Z,81.10
2019-03-28T11:37:53.565Z,80.10
2019-03-28T11:40:42.722Z,80.90
2019-03-28T11:43:26.126Z,80.40
2019-03-28T11:46:10.930Z,79.40
2019-03-28T11:48:56.160Z,79.50
2019-03-28T11:51:41.050Z,82.70
2019-03-28T11:54:25.867Z,83.10
2019-03-28T11:57:10.816Z,83.60
2019-03-28T11:59:57.968Z,84.50
2019-03-28T12:02:42.836Z,85.50
2019-03-28T12:05:27.681Z,86.50
2019-03-28T12:08:12.405Z,84.40
2019-03-28T12:10:57.679Z,85.20
2019-03-28T12:13:44.959Z,85.30
2019-03-28T12:16:29.392Z,84.90
2019-03-28T12:19:17.501Z,84.00
2019-03-28T12:22:01.000Z,84.70
2019-03-28T12:24:45.665Z,81.80
2019-03-28T12:27:30.656Z,81.50
2019-03-28T12:30:16.403Z,78.80
2019-03-28T12:33:01.925Z,79.00
2019-03-28T12:35:46.951Z,81.30
2019-03-28T12:38:31.893Z,80.60
2019-03-28T12:41:16.871Z,82.30
2019-03-28T12:44:01.871Z,81.40
2019-03-28T12:46:46.860Z,81.70
2019-03-28T12:49:31.797Z,81.50
2019-03-28T12:52:16.418Z,79.60
2019-03-28T12:55:01.035Z,78.70
2019-03-28T12:57:48.228Z,79.30
2019-03-28T13:00:33.327Z,81.60
2019-03-28T13:03:18.275Z,80.00
2019-03-28T13:06:03.222Z,79.70
2019-03-28T13:08:47.733Z,80.00
2019-03-28T13:11:32.510Z,79.70
2019-03-28T13:14:17.461Z,78.10
2019-03-28T13:17:02.419Z,78.00
2019-03-28T13:19:47.409Z,77.80
2019-03-28T13:22:32.443Z,77.00
2019-03-28T13:25:17.384Z,76.60
2019-03-28T13:28:02.719Z,76.10
2019-03-28T13:30:47.624Z,77.00
2019-03-28T13:33:32.835Z,76.20
2019-03-28T13:36:17.360Z,77.40
2019-03-28T13:39:02.449Z,78.20
2019-03-28T13:41:47.205Z,79.30
2019-03-28T13:44:32.158Z,77.40
2019-03-28T13:47:16.900Z,77.10
2019-03-28T13:50:05.045Z,77.80
2019-03-28T13:52:49.977Z,78.00
2019-03-28T13:55:35.042Z,78.70
2019-03-28T13:58:19.648Z,76.80
2019-03-28T14:01:04.245Z,77.20
2019-03-28T14:03:49.337Z,79.00
2019-03-28T14:06:33.949Z,79.80
2019-03-28T14:09:19.233Z,79.50
2019-03-28T14:12:04.425Z,77.00
2019-03-28T14:14:49.406Z,76.70
2019-03-28T14:17:35.056Z,76.90
2019-03-28T14:20:22.369Z,76.90
2019-03-28T14:23:06.898Z,78.10
2019-03-28T14:25:51.769Z,78.10
2019-03-28T14:28:36.989Z,78.10
2019-03-28T14:31:22.109Z,78.20
2019-03-28T14:34:07.271Z,79.10
2019-03-28T14:36:52.207Z,79.30
2019-03-28T14:39:37.114Z,79.60
2019-03-28T14:42:21.680Z,79.70
2019-03-28T14:45:06.919Z,77.90
2019-03-28T14:47:52.047Z,78.20
2019-03-28T14:50:38.175Z,77.70
2019-03-28T14:53:23.349Z,78.20
2019-03-28T14:56:08.442Z,78.60
2019-03-28T14:58:54.594Z,78.80
2019-03-28T15:01:39.574Z,79.10
2019-03-28T15:04:24.557Z,80.20
2019-03-28T15:07:09.640Z,80.10
2019-03-28T15:09:54.683Z,80.10
2019-03-28T15:12:39.743Z,79.70
2019-03-28T15:15:24.327Z,81.70
2019-03-28T15:18:09.516Z,82.60
2019-03-28T15:20:53.959Z,80.50
2019-03-28T15:23:39.085Z,81.20
2019-03-28T15:26:24.386Z,81.50
2019-03-28T15:29:09.154Z,81.00
2019-03-28T15:31:53.964Z,81.60
2019-03-28T15:34:39.012Z,82.50
2019-03-28T15:37:23.942Z,82.00
2019-03-28T15:40:09.009Z,80.70
2019-03-28T15:42:53.741Z,80.70
2019-03-28T15:45:38.834Z,82.00
2019-03-28T15:48:23.818Z,81.90
2019-03-28T15:51:08.938Z,81.60
2019-03-28T15:53:53.932Z,81.40
2019-03-28T15:56:38.834Z,82.20
2019-03-28T15:59:23.588Z,82.10
2019-03-28T16:02:08.712Z,81.20
2019-03-28T16:04:53.667Z,80.60
2019-03-28T16:07:38.766Z,82.10
2019-03-28T16:10:23.873Z,82.40
2019-03-28T16:13:08.748Z,81.40
2019-03-28T16:15:54.211Z,81.20
2019-03-28T16:18:39.617Z,81.60
2019-03-28T16:21:26.716Z,80.90
2019-03-28T16:24:11.550Z,81.60
2019-03-28T16:26:56.489Z,82.70
2019-03-28T16:29:41.675Z,81.20
2019-03-28T16:32:26.617Z,81.90
2019-03-28T16:35:11.617Z,81.20
2019-03-28T16:37:56.523Z,81.60
2019-03-28T16:40:41.663Z,81.80
2019-03-28T16:43:26.912Z,82.70
2019-03-28T16:46:11.906Z,82.00
2019-03-28T16:48:57.014Z,82.20
2019-03-28T16:51:43.467Z,81.60
2019-03-28T16:54:28.229Z,83.00
2019-03-28T16:57:13.304Z,81.80
2019-03-28T16:59:58.541Z,82.00
2019-03-28T17:02:43.505Z,82.70
2019-03-28T17:05:29.560Z,82.70
2019-03-28T17:08:15.082Z,83.90
2019-03-28T17:11:00.182Z,83.80
2019-03-28T17:13:46.478Z,84.40
2019-03-28T17:16:31.314Z,85.10
2019-03-28T17:19:16.534Z,85.90
2019-03-28T17:22:02.000Z,86.00
2019-03-28T17:24:47.061Z,87.00
2019-03-28T17:27:32.198Z,88.40
2019-03-28T17:30:17.185Z,87.70
2019-03-28T17:33:02.332Z,88.20
2019-03-28T17:35:47.554Z,89.00
2019-03-28T17:38:32.331Z,90.40
2019-03-28T17:41:17.976Z,88.20
2019-03-28T17:44:02.718Z,87.70
2019-03-28T17:46:48.009Z,88.10
2019-03-28T17:49:33.045Z,88.30
2019-03-28T17:52:18.090Z,90.80
2019-03-28T17:55:04.375Z,91.90
2019-03-28T17:57:49.524Z,91.50
2019-03-28T18:00:34.769Z,91.50
2019-03-28T18:03:30.526Z,92.00
2019-03-28T18:06:09.440Z,92.50
2019-03-28T18:08:59.877Z,92.00
2019-03-28T18:11:45.138Z,91.80
2019-03-28T18:14:30.378Z,93.20
2019-03-28T18:17:15.559Z,93.40
2019-03-28T18:20:00.589Z,93.60
2019-03-28T18:22:45.621Z,93.40
2019-03-28T18:25:30.933Z,93.70
2019-03-28T18:28:15.994Z,94.20
2019-03-28T18:31:01.550Z,94.60
2019-03-28T18:33:46.721Z,95.10
2019-03-28T18:36:32.203Z,96.70
2019-03-28T18:39:17.439Z,97.00
2019-03-28T18:42:02.234Z,97.40
2019-03-28T18:44:47.397Z,97.40
2019-03-28T18:47:32.533Z,97.40
2019-03-28T18:50:17.815Z,97.20
2019-03-28T18:53:02.977Z,97.70
2019-03-28T18:55:48.203Z,96.70
2019-03-28T18:58:33.297Z,96.60
2019-03-28T19:01:18.334Z,95.10
2019-03-28T19:04:03.395Z,97.60
2019-03-28T19:06:50.308Z,97.70
2019-03-28T19:09:35.558Z,97.00
2019-03-28T19:12:21.123Z,97.20
2019-03-28T19:15:07.214Z,97.70
2019-03-28T19:17:52.477Z,98.30
2019-03-28T19:20:37.614Z,98.10
2019-03-28T19:23:22.818Z,98.00
2019-03-28T19:26:10.612Z,98.50
2019-03-28T19:28:56.288Z,97.50
2019-03-28T19:31:41.446Z,95.60
2019-03-28T19:34:26.561Z,94.90
2019-03-28T19:37:11.867Z,95.40
2019-03-28T19:39:56.785Z,95.90
2019-03-28T19:42:42.101Z,96.00
2019-03-28T19:45:35.912Z,97.40
2019-03-28T19:48:21.198Z,97.10
2019-03-28T19:51:06.225Z,97.70
2019-03-28T19:53:51.611Z,97.60
2019-03-28T19:56:36.561Z,98.20
2019-03-28T19:59:21.905Z,98.60
2019-03-28T20:02:07.947Z,99.10
2019-03-28T20:04:53.193Z,98.80
2019-03-28T20:07:38.180Z,98.70
2019-03-28T20:10:23.134Z,99.10
2019-03-28T20:13:08.371Z,99.60
2019-03-28T20:15:53.553Z,99.90
2019-03-28T20:18:38.848Z,99.90
2019-03-28T20:21:23.902Z,99.90
2019-03-28T20:24:08.998Z,99.90
2019-03-28T20:26:54.433Z,99.90
2019-03-28T20:29:40.050Z,99.90
2019-03-28T20:32:24.977Z,99.90
2019-03-28T20:35:10.833Z,99.90
2019-03-28T20:37:56.306Z,99.90
2019-03-28T20:40:43.351Z,99.90
2019-03-28T20:43:28.464Z,99.90
2019-03-28T20:46:13.511Z,99.90
2019-03-28T20:48:58.831Z,99.90
2019-03-28T20:51:43.992Z,99.90
2019-03-28T20:54:28.843Z,99.90
2019-03-28T20:57:14.067Z,99.90
2019-03-28T20:59:59.420Z,99.90
2019-03-28T21:02:44.418Z,99.90
2019-03-28T21:05:29.556Z,99.90
2019-03-28T21:08:15.137Z,99.90
2019-03-28T21:11:00.066Z,99.90
2019-03-28T21:13:44.949Z,99.90
2019-03-28T21:16:29.861Z,99.90
2019-03-28T21:19:15.174Z,99.90
2019-03-28T21:22:00.023Z,99.90
2019-03-28T21:24:44.842Z,99.90
2019-03-28T21:27:29.842Z,99.90
2019-03-28T21:30:18.281Z,99.90
2019-03-28T21:33:02.098Z,99.90
2019-03-28T21:35:47.072Z,99.90
2019-03-28T21:38:32.714Z,99.90
2019-03-28T21:41:17.545Z,99.90
2019-03-28T21:44:02.748Z,99.90
2019-03-28T21:46:47.715Z,99.90
2019-03-28T21:49:32.786Z,99.90
2019-03-28T21:52:17.819Z,99.90
2019-03-28T21:55:05.266Z,99.90
2019-03-28T21:57:50.058Z,99.90
2019-03-28T22:00:34.732Z,99.90
2019-03-28T22:03:19.976Z,99.90
2019-03-28T22:06:05.071Z,99.90
2019-03-28T22:08:50.265Z,99.90
2019-03-28T22:11:35.478Z,99.90
2019-03-28T22:14:20.508Z,99.90
2019-03-28T22:17:05.657Z,99.90
2019-03-28T22:19:51.676Z,99.90
2019-03-28T22:22:37.078Z,99.90
2019-03-28T22:25:21.722Z,99.90
2019-03-28T22:28:06.641Z,99.90
2019-03-28T22:30:51.661Z,99.90
2019-03-28T22:33:36.391Z,99.90
2019-03-28T22:36:21.791Z,99.90
2019-03-28T22:39:06.856Z,99.90
2019-03-28T22:41:51.648Z,99.90
2019-03-28T22:44:36.382Z,99.90
2019-03-28T22:47:20.816Z,99.90
2019-03-28T22:50:05.852Z,99.90
2019-03-28T22:52:50.735Z,99.90
2019-03-28T22:55:35.740Z,99.90
2019-03-28T22:58:20.816Z,99.90
2019-03-28T23:01:06.042Z,99.90
2019-03-28T23:03:50.966Z,99.90
2019-03-28T23:06:35.871Z,99.90
2019-03-28T23:09:20.384Z,99.90
2019-03-28T23:12:04.966Z,99.90
2019-03-28T23:14:49.943Z,99.90
2019-03-28T23:17:34.552Z,99.90
2019-03-28T23:20:19.604Z,99.90
2019-03-28T23:23:04.122Z,99.90
2019-03-28T23:25:48.897Z,99.90
2019-03-28T23:28:39.845Z,99.90
2019-03-28T23:31:24.627Z,99.90
2019-03-28T23:34:09.892Z,99.90
2019-03-28T23:36:54.777Z,99.90
2019-03-28T23:39:39.935Z,99.90
2019-03-28T23:42:24.926Z,99.90
2019-03-28T23:45:10.302Z,99.90
2019-03-28T23:47:55.765Z,99.90
2019-03-28T23:50:40.512Z,99.90
2019-03-28T23:53:25.630Z,99.90
2019-03-28T23:56:10.856Z,99.90
2019-03-28T23:58:56.031Z,99.90
